Terminal Aerodrome Forecast
Issued by NWS Cleveland, OH

Home | Current Version | Previous Version | Graphics & Text | Print | Product List | Glossary On
Versions: 1 2 3 4 5 6 7 8 9 10 11 12 13 14 15 16 17 18 19 20 21 22 23 24 25 26 27 28 29 30 31 32
000
FTUS41 KCLE 200336 AAB
TAFCLE
TAF AMD
KCLE 200336Z 2004/2106 19014G22KT P6SM OVC070
     FM201000 20015G25KT P6SM OVC100
     FM201500 20018G30KT P6SM BKN070=

USA.gov is the U.S. government's official web portal to all federal, state and local government web resources and services.